Time;durP1;ratioP1;P1;durP2;ratioP2;P2;SDS_P1;SDS_P2;PMS_P1;PMS_P2;Temp;Humidity;BMP_temperature;BMP_pressure;BME280_temperature;BME280_humidity;BME280_pressure;Samples;Min_cycle;Max_cycle;Signal;HPM_P1;HPM_P2
2022/03/24 00:01:44;;;;;;;8.23;5.00;;;8.90;99.90;;;;;;5054623;28;20440;-59
2022/03/24 00:04:11;;;;;;;8.63;3.80;;;8.90;99.90;;;;;;5056477;28;20447;-60
2022/03/24 00:06:38;;;;;;;7.53;3.20;;;8.90;99.90;;;;;;5057740;28;20869;-59
2022/03/24 00:09:05;;;;;;;7.97;3.23;;;8.80;99.90;;;;;;5058186;28;20451;-59
2022/03/24 00:11:32;;;;;;;10.03;5.37;;;8.80;99.90;;;;;;5057813;28;20554;-59
2022/03/24 00:13:59;;;;;;;6.00;2.60;;;8.80;99.90;;;;;;5058806;28;20451;-59
2022/03/24 00:16:28;;;;;;;6.30;3.40;;;8.80;1.00;;;;;;5058629;28;20946;-59
2022/03/24 00:18:55;;;;;;;21.77;5.07;;;8.70;99.90;;;;;;5056826;28;20542;-58
2022/03/24 00:21:23;;;;;;;10.17;4.00;;;8.70;99.90;;;;;;5057282;28;20483;-59
2022/03/24 00:23:51;;;;;;;13.80;4.90;;;8.60;99.90;;;;;;5057318;28;20455;-59
2022/03/24 00:26:19;;;;;;;6.70;3.07;;;8.60;99.90;;;;;;5057187;28;20475;-59
2022/03/24 00:28:46;;;;;;;11.13;4.40;;;8.60;1.00;;;;;;5057853;28;20502;-58
2022/03/24 00:31:14;;;;;;;13.40;3.83;;;8.60;1.00;;;;;;5056441;28;20486;-60
2022/03/24 00:33:42;;;;;;;10.00;4.40;;;8.50;1.00;;;;;;5055292;28;20502;-58
2022/03/24 00:36:11;;;;;;;9.57;3.90;;;8.50;1.00;;;;;;5054773;28;20832;-59
2022/03/24 00:38:38;;;;;;;9.23;3.10;;;8.50;1.00;;;;;;5054926;28;20471;-59
2022/03/24 00:41:05;;;;;;;10.43;3.70;;;8.40;1.00;;;;;;5054119;28;20494;-59
2022/03/24 00:43:33;;;;;;;11.43;3.60;;;8.40;1.00;;;;;;5054772;28;20475;-58
2022/03/24 00:46:00;;;;;;;6.10;3.80;;;8.40;1.00;;;;;;5052975;28;20922;-58
2022/03/24 00:48:27;;;;;;;8.27;3.30;;;8.40;1.00;;;;;;5054251;28;20923;-58
2022/03/24 00:50:55;;;;;;;9.37;4.50;;;8.30;1.00;;;;;;5055142;28;20553;-57
2022/03/24 00:53:23;;;;;;;6.83;4.00;;;8.30;1.00;;;;;;5055278;28;20813;-59
2022/03/24 00:55:50;;;;;;;5.90;4.53;;;8.30;1.00;;;;;;5054725;28;20521;-59
2022/03/24 00:58:17;;;;;;;9.23;4.60;;;8.30;1.00;;;;;;5056102;28;20533;-64
2022/03/24 01:00:44;;;;;;;8.43;4.23;;;8.20;1.00;;;;;;5056674;28;20554;-64
2022/03/24 01:03:11;;;;;;;5.40;3.83;;;8.10;1.00;;;;;;5057374;28;20947;-64
2022/03/24 01:05:38;;;;;;;5.70;4.20;;;8.10;1.00;;;;;;5056351;28;20491;-64
2022/03/24 01:08:08;;;;;;;8.80;4.10;;;8.10;1.00;;;;;;5057372;28;20875;-63
2022/03/24 01:10:35;;;;;;;15.03;4.13;;;8.10;1.00;;;;;;5058237;28;20475;-64
2022/03/24 01:13:03;;;;;;;7.73;2.63;;;8.10;1.00;;;;;;5057972;28;20443;-63
2022/03/24 01:15:30;;;;;;;6.90;3.47;;;8.00;1.00;;;;;;5057293;28;20455;-64
2022/03/24 01:17:59;;;;;;;6.03;3.03;;;8.00;1.00;;;;;;5057728;28;20443;-64
2022/03/24 01:20:27;;;;;;;5.93;3.20;;;8.00;1.00;;;;;;5054556;28;20880;-64
2022/03/24 01:22:54;;;;;;;8.90;3.63;;;8.00;1.00;;;;;;5057016;28;20558;-64
2022/03/24 01:25:27;;;;;;;9.80;3.80;;;8.00;1.00;;;;;;5054632;28;20466;-64
2022/03/24 01:27:54;;;;;;;8.83;2.97;;;8.00;1.00;;;;;;5055370;28;20788;-64
2022/03/24 01:30:21;;;;;;;7.07;4.17;;;8.00;1.00;;;;;;5056343;28;20562;-65
2022/03/24 01:32:48;;;;;;;7.10;3.20;;;8.00;1.00;;;;;;5056547;28;20455;-64
2022/03/24 01:35:15;;;;;;;10.00;4.40;;;7.90;1.00;;;;;;5056139;28;20447;-64
2022/03/24 01:37:43;;;;;;;5.50;2.47;;;7.90;1.00;;;;;;5055449;28;20542;-64
2022/03/24 01:40:13;;;;;;;7.67;2.70;;;7.80;1.00;;;;;;5057465;28;20444;-64
2022/03/24 01:42:43;;;;;;;8.77;3.00;;;7.80;1.00;;;;;;5057073;28;20502;-64
2022/03/24 01:45:11;;;;;;;5.97;3.00;;;7.70;1.00;;;;;;5057202;28;20447;-64
2022/03/24 01:47:38;;;;;;;6.90;3.67;;;7.70;1.00;;;;;;5056628;28;20877;-64
2022/03/24 01:50:07;;;;;;;7.33;3.83;;;7.70;1.00;;;;;;5057280;28;20447;-65
2022/03/24 01:52:34;;;;;;;7.03;3.43;;;7.70;1.00;;;;;;5057327;28;20534;-65
2022/03/24 01:55:01;;;;;;;6.33;3.20;;;7.70;1.00;;;;;;5056530;28;20961;-64
2022/03/24 01:57:29;;;;;;;6.33;2.63;;;7.70;1.00;;;;;;5056831;28;20549;-64
2022/03/24 01:59:58;;;;;;;6.33;3.00;;;7.70;1.00;;;;;;5057218;28;20460;-64
2022/03/24 02:02:26;;;;;;;10.03;3.93;;;7.60;1.00;;;;;;5057112;28;20841;-64
2022/03/24 02:04:53;;;;;;;9.60;3.93;;;7.60;1.00;;;;;;5057120;28;20821;-64
2022/03/24 02:07:20;;;;;;;7.43;3.47;;;7.60;1.00;;;;;;5056434;28;20848;-64
2022/03/24 02:09:47;;;;;;;6.03;4.40;;;7.60;1.00;;;;;;5056183;28;20459;-64
2022/03/24 02:12:14;;;;;;;7.00;3.60;;;7.60;1.00;;;;;;5056951;28;20811;-64
2022/03/24 02:14:42;;;;;;;6.90;3.40;;;7.70;1.00;;;;;;5057015;28;20462;-62
2022/03/24 02:17:11;;;;;;;7.90;3.03;;;7.60;1.00;;;;;;5056574;28;20888;-62
2022/03/24 02:19:38;;;;;;;8.90;3.20;;;7.60;1.00;;;;;;5055869;28;20487;-62
2022/03/24 02:22:12;;;;;;;8.10;4.50;;;7.70;1.00;;;;;;5056459;28;20529;-63
2022/03/24 02:24:39;;;;;;;8.83;3.80;;;7.60;1.00;;;;;;5055514;28;20498;-63
2022/03/24 02:27:06;;;;;;;12.60;4.77;;;7.50;1.00;;;;;;5055533;28;20519;-62
2022/03/24 02:29:33;;;;;;;6.90;3.80;;;7.50;1.00;;;;;;5055849;28;20548;-63
2022/03/24 02:32:01;;;;;;;10.07;4.40;;;7.50;1.00;;;;;;5056015;28;20539;-63
2022/03/24 02:34:47;;;;;;;8.90;3.40;;;7.40;1.00;;;;;;5053747;28;20542;-62
2022/03/24 02:37:17;;;;;;;7.93;3.43;;;7.30;1.00;;;;;;5054538;28;20444;-63
2022/03/24 02:39:46;;;;;;;9.63;4.63;;;7.30;1.00;;;;;;5054779;28;20763;-63
2022/03/24 02:42:15;;;;;;;9.83;4.97;;;7.30;1.00;;;;;;5055034;28;20537;-62
2022/03/24 02:44:43;;;;;;;7.93;3.93;;;7.20;1.00;;;;;;5054908;28;20526;-63
2022/03/24 02:47:11;;;;;;;7.83;3.83;;;7.20;1.00;;;;;;5054459;28;20454;-64
2022/03/24 02:49:39;;;;;;;11.93;4.67;;;7.20;1.00;;;;;;5053932;28;20463;-63
2022/03/24 02:52:07;;;;;;;8.63;3.73;;;7.20;1.00;;;;;;5055338;28;20447;-63
2022/03/24 02:54:36;;;;;;;7.40;3.70;;;7.20;1.00;;;;;;5055924;28;20548;-62
2022/03/24 02:57:04;;;;;;;6.83;3.00;;;7.20;1.00;;;;;;5055682;28;20939;-62
2022/03/24 02:59:31;;;;;;;8.97;3.87;;;7.20;1.00;;;;;;5055155;28;20529;-63
2022/03/24 03:02:00;;;;;;;9.50;4.00;;;7.20;1.00;;;;;;5055752;28;20451;-63
2022/03/24 03:04:27;;;;;;;7.33;4.00;;;7.20;1.00;;;;;;5055543;28;20466;-63
2022/03/24 03:06:55;;;;;;;5.80;2.90;;;7.30;1.00;;;;;;5055348;28;20586;-62
2022/03/24 03:09:22;;;;;;;13.43;3.33;;;7.30;1.00;;;;;;5055014;28;20483;-62
2022/03/24 03:11:52;;;;;;;7.90;2.87;;;7.20;1.00;;;;;;5056026;28;20485;-63
2022/03/24 03:14:20;;;;;;;9.30;3.77;;;7.10;1.00;;;;;;5055485;28;20905;-63
2022/03/24 03:16:47;;;;;;;6.10;3.83;;;7.00;1.00;;;;;;5055955;28;20447;-63
2022/03/24 03:19:17;;;;;;;8.00;4.17;;;7.00;1.00;;;;;;5055059;28;20493;-62
2022/03/24 03:21:44;;;;;;;8.67;4.53;;;7.00;1.00;;;;;;5055357;28;20927;-62
2022/03/24 03:24:12;;;;;;;5.20;3.10;;;6.90;1.00;;;;;;5054713;28;20950;-62
2022/03/24 03:26:39;;;;;;;8.80;5.17;;;6.90;1.00;;;;;;5055302;28;20553;-64
2022/03/24 03:29:08;;;;;;;6.27;3.47;;;6.90;1.00;;;;;;5055051;28;20466;-62
2022/03/24 03:31:35;;;;;;;6.13;3.80;;;6.90;1.00;;;;;;5055472;28;20493;-63
2022/03/24 03:34:03;;;;;;;6.50;3.30;;;6.80;1.00;;;;;;5055084;28;20825;-64
2022/03/24 03:36:31;;;;;;;6.23;3.30;;;6.80;1.00;;;;;;5055824;28;20564;-64
2022/03/24 03:38:58;;;;;;;8.27;4.23;;;6.80;1.00;;;;;;5058590;28;20456;-64
2022/03/24 03:41:26;;;;;;;6.87;3.80;;;6.80;1.00;;;;;;5058869;28;20569;-65
2022/03/24 03:43:54;;;;;;;6.23;2.80;;;6.80;1.00;;;;;;5057752;28;20508;-57
2022/03/24 03:46:22;;;;;;;8.37;4.03;;;6.70;1.00;;;;;;5058883;28;20491;-56
2022/03/24 03:48:50;;;;;;;9.43;4.17;;;6.80;1.00;;;;;;5058383;28;20550;-56
2022/03/24 03:51:17;;;;;;;6.03;3.80;;;6.80;1.00;;;;;;5058973;28;20526;-58
2022/03/24 03:53:44;;;;;;;10.20;4.20;;;6.80;1.00;;;;;;5058038;28;20479;-57
2022/03/24 03:56:12;;;;;;;4.80;2.20;;;6.80;1.00;;;;;;5058892;28;20522;-53
2022/03/24 03:58:40;;;;;;;9.23;4.03;;;6.80;1.00;;;;;;5058862;28;20498;-56
2022/03/24 04:01:08;;;;;;;5.30;3.43;;;6.80;1.00;;;;;;5058493;28;20901;-56
2022/03/24 04:03:38;;;;;;;8.93;4.30;;;6.80;1.00;;;;;;5058318;28;20455;-57
2022/03/24 04:06:07;;;;;;;9.30;4.60;;;6.80;1.00;;;;;;5058745;28;20505;-59
2022/03/24 04:08:35;;;;;;;6.97;3.30;;;6.80;1.00;;;;;;5058534;28;20545;-57
2022/03/24 04:11:02;;;;;;;9.07;3.73;;;6.80;1.00;;;;;;5058803;28;20451;-57
2022/03/24 04:13:29;;;;;;;5.60;3.07;;;6.80;1.00;;;;;;5058763;28;20466;-58
2022/03/24 04:15:57;;;;;;;9.90;5.10;;;6.90;1.00;;;;;;5058988;28;20965;-57
2022/03/24 04:18:24;;;;;;;10.57;3.37;;;6.90;1.00;;;;;;5059444;28;20835;-57
2022/03/24 04:20:52;;;;;;;7.50;3.80;;;6.90;1.00;;;;;;5059345;28;20549;-57
2022/03/24 04:23:19;;;;;;;7.00;4.00;;;6.90;1.00;;;;;;5018951;28;20932;-56
2022/03/24 04:25:46;;;;;;;10.00;3.80;;;6.90;1.00;;;;;;5019260;28;20544;-59
2022/03/24 04:28:14;;;;;;;7.00;4.10;;;6.80;1.00;;;;;;5018705;28;20485;-58
2022/03/24 04:30:41;;;;;;;10.33;3.90;;;6.80;1.00;;;;;;5018968;28;20492;-58
2022/03/24 04:33:07;;;;;;;7.53;4.00;;;6.70;1.00;;;;;;5018696;28;20449;-57
2022/03/24 04:35:35;;;;;;;6.60;3.77;;;6.70;1.00;;;;;;5018342;28;20493;-58
2022/03/24 04:38:04;;;;;;;8.27;3.67;;;6.70;1.00;;;;;;5018089;28;20540;-58
2022/03/24 04:40:31;;;;;;;7.90;3.50;;;6.60;1.00;;;;;;5017506;28;20465;-58
2022/03/24 04:42:58;;;;;;;5.83;3.10;;;6.60;1.00;;;;;;5017623;28;20449;-57
2022/03/24 04:45:27;;;;;;;5.90;4.27;;;6.60;1.00;;;;;;5018260;28;20813;-58
2022/03/24 04:47:55;;;;;;;9.87;4.30;;;6.50;1.00;;;;;;5017485;28;20491;-57
2022/03/24 04:50:22;;;;;;;8.93;3.90;;;6.50;1.00;;;;;;5016747;28;20456;-56
2022/03/24 04:52:49;;;;;;;6.27;3.33;;;6.50;1.00;;;;;;5018126;28;20547;-56
2022/03/24 04:55:18;;;;;;;8.83;3.80;;;6.50;1.00;;;;;;5017705;28;20919;-57
2022/03/24 04:57:45;;;;;;;12.07;5.27;;;6.40;1.00;;;;;;5017453;28;20551;-56
2022/03/24 05:00:15;;;;;;;9.90;3.87;;;6.50;1.00;;;;;;5015670;28;20536;-57
2022/03/24 05:02:43;;;;;;;7.23;3.27;;;6.50;1.00;;;;;;5015194;28;20449;-56
2022/03/24 05:05:10;;;;;;;13.00;4.83;;;6.40;1.00;;;;;;5015928;28;20477;-57
2022/03/24 05:07:37;;;;;;;6.43;3.10;;;6.40;1.00;;;;;;5015886;28;20480;-55
2022/03/24 05:10:05;;;;;;;7.30;4.70;;;6.40;1.00;;;;;;5016413;28;20449;-57
2022/03/24 05:12:34;;;;;;;10.53;4.87;;;6.40;1.00;;;;;;5016236;28;20536;-59
2022/03/24 05:15:00;;;;;;;5.23;4.00;;;6.30;1.00;;;;;;5017892;28;20455;-59
2022/03/24 05:17:27;;;;;;;10.03;4.13;;;6.30;1.00;;;;;;5018201;28;20472;-56
2022/03/24 05:19:54;;;;;;;13.90;4.63;;;6.40;26.40;;;;;;5017540;28;20540;-58
2022/03/24 05:22:21;;;;;;;7.60;3.37;;;6.40;1.00;;;;;;5040352;28;20577;-56
2022/03/24 05:24:48;;;;;;;7.37;4.00;;;6.50;1.00;;;;;;5057744;28;20447;-56
2022/03/24 05:27:15;;;;;;;10.20;3.40;;;6.60;1.00;;;;;;5056665;28;20586;-57
2022/03/24 05:29:44;;;;;;;9.83;4.73;;;6.60;1.00;;;;;;5057123;28;20948;-57
2022/03/24 05:32:12;;;;;;;8.27;3.90;;;6.60;1.00;;;;;;5056841;28;20476;-56
2022/03/24 05:34:39;;;;;;;7.63;3.83;;;6.50;1.00;;;;;;5056955;28;20540;-57
2022/03/24 05:37:06;;;;;;;11.97;5.10;;;6.50;1.00;;;;;;5056443;28;20665;-57
2022/03/24 05:39:33;;;;;;;8.43;4.30;;;6.50;1.00;;;;;;5057484;28;20465;-55
2022/03/24 05:42:02;;;;;;;8.80;4.50;;;6.50;1.00;;;;;;5056820;28;20501;-58
2022/03/24 05:44:30;;;;;;;4.40;3.47;;;6.50;1.00;;;;;;5057153;28;20474;-55
2022/03/24 05:46:59;;;;;;;7.70;4.50;;;6.60;1.00;;;;;;5056941;28;20483;-55
2022/03/24 05:49:26;;;;;;;9.90;5.97;;;6.60;1.00;;;;;;5055538;28;20423;-52
2022/03/24 05:51:53;;;;;;;10.13;7.10;;;6.60;1.00;;;;;;5055368;28;20463;-57
2022/03/24 05:54:21;;;;;;;11.05;6.82;;;6.60;1.00;;;;;;5055761;28;20499;-55
2022/03/24 05:56:49;;;;;;;11.40;7.82;;;6.60;1.00;;;;;;5055755;28;20532;-52
2022/03/24 05:59:16;;;;;;;12.25;7.38;;;6.60;1.00;;;;;;5055524;28;20421;-56
2022/03/24 06:01:46;;;;;;;10.48;6.43;;;6.60;1.00;;;;;;5055507;28;20457;-56
2022/03/24 06:04:15;;;;;;;10.60;6.75;;;6.60;1.00;;;;;;5055594;28;20456;-57
2022/03/24 06:06:43;;;;;;;12.02;7.18;;;6.50;1.00;;;;;;5055648;28;20443;-57
2022/03/24 06:09:10;;;;;;;11.07;7.15;;;6.50;1.00;;;;;;5055174;28;20421;-54
2022/03/24 06:11:39;;;;;;;11.77;6.80;;;6.50;1.00;;;;;;5055022;28;20777;-57
2022/03/24 06:14:08;;;;;;;10.97;6.77;;;6.30;1.00;;;;;;5053217;28;20777;-55
2022/03/24 06:16:37;;;;;;;9.88;5.97;;;6.40;1.00;;;;;;5054386;28;20432;-56
2022/03/24 06:19:03;;;;;;;8.95;6.72;;;6.50;1.00;;;;;;5054211;28;20471;-55
2022/03/24 06:21:32;;;;;;;10.83;6.60;;;6.60;1.00;;;;;;5055044;28;20429;-54
2022/03/24 06:23:59;;;;;;;8.23;5.43;;;6.70;1.00;;;;;;5054576;28;20425;-54
2022/03/24 06:26:29;;;;;;;11.32;6.30;;;6.80;1.00;;;;;;5054220;28;20783;-56
2022/03/24 06:28:56;;;;;;;11.10;7.90;;;6.90;1.00;;;;;;5053540;28;20785;-57
2022/03/24 06:31:23;;;;;;;8.73;6.20;;;7.10;1.00;;;;;;5053631;28;20459;-55
2022/03/24 06:33:50;;;;;;;11.38;7.50;;;7.20;1.00;;;;;;5053235;28;20417;-55
2022/03/24 06:36:17;;;;;;;11.73;7.90;;;7.30;1.00;;;;;;5049512;28;20542;-54
2022/03/24 06:38:45;;;;;;;12.27;7.80;;;7.10;1.00;;;;;;5054849;28;20460;-55
2022/03/24 06:41:14;;;;;;;12.38;7.43;;;7.00;1.00;;;;;;5054139;28;20433;-54
2022/03/24 06:43:42;;;;;;;12.43;8.50;;;7.00;1.00;;;;;;5051540;28;20452;-56
2022/03/24 06:46:09;;;;;;;11.18;6.97;;;7.00;1.00;;;;;;5052001;28;20437;-58
2022/03/24 06:48:36;;;;;;;9.27;6.50;;;7.10;1.00;;;;;;5052457;28;20433;-54
2022/03/24 06:51:04;;;;;;;11.82;8.07;;;7.30;1.00;;;;;;5052540;28;20770;-56
2022/03/24 06:53:31;;;;;;;10.85;8.05;;;7.30;1.00;;;;;;5052389;28;20801;-58
2022/03/24 06:56:00;;;;;;;11.27;7.90;;;7.30;1.00;;;;;;5051657;28;21005;-57
2022/03/24 06:58:27;;;;;;;13.50;8.45;;;7.30;1.00;;;;;;5051257;28;20521;-55
2022/03/24 07:00:54;;;;;;;12.38;7.25;;;7.30;1.00;;;;;;5050675;28;20536;-58
2022/03/24 07:03:21;;;;;;;9.80;7.57;;;7.40;1.00;;;;;;5052238;28;20726;-57
2022/03/24 07:05:48;;;;;;;10.57;7.60;;;7.40;1.00;;;;;;5051458;28;20437;-55
2022/03/24 07:08:14;;;;;;;13.27;8.40;;;7.40;1.00;;;;;;5052414;28;20440;-54
2022/03/24 07:10:41;;;;;;;10.30;6.88;;;7.50;1.00;;;;;;5052692;28;20432;-55
2022/03/24 07:13:09;;;;;;;13.68;7.57;;;7.70;1.00;;;;;;5052031;28;20425;-56
2022/03/24 07:15:36;;;;;;;12.90;8.77;;;8.00;1.00;;;;;;5052685;28;20428;-53
2022/03/24 07:18:04;;;;;;;10.95;8.48;;;8.20;1.00;;;;;;5053744;28;20929;-55
2022/03/24 07:20:33;;;;;;;11.65;8.25;;;8.20;1.00;;;;;;5053833;28;20528;-52
2022/03/24 07:23:02;;;;;;;13.75;9.18;;;8.30;1.00;;;;;;5052605;28;20760;-55
2022/03/24 07:25:30;;;;;;;11.75;8.07;;;8.30;1.00;;;;;;5052319;28;20460;-50
2022/03/24 07:27:57;;;;;;;13.55;9.73;;;8.20;1.00;;;;;;5052454;28;20715;-56
2022/03/24 07:30:25;;;;;;;14.05;8.80;;;8.30;1.00;;;;;;5052061;28;20865;-50
2022/03/24 07:32:55;;;;;;;9.10;7.22;;;8.30;1.00;;;;;;5052721;28;20421;-55
2022/03/24 07:35:24;;;;;;;13.43;8.90;;;8.40;1.00;;;;;;5051639;28;20523;-51
2022/03/24 07:37:51;;;;;;;12.85;9.38;;;8.50;1.00;;;;;;5052034;28;20465;-55
2022/03/24 07:40:21;;;;;;;14.45;9.27;;;8.60;1.00;;;;;;5050717;28;20722;-56
2022/03/24 07:42:49;;;;;;;15.15;9.13;;;8.60;1.00;;;;;;5051647;28;20429;-54
2022/03/24 07:45:16;;;;;;;16.58;9.52;;;8.50;1.00;;;;;;5051836;28;20614;-55
2022/03/24 07:48:08;;;;;;;13.85;9.00;;;8.50;1.00;;;;;;5051557;28;20429;-53
2022/03/24 07:50:35;;;;;;;13.75;9.85;;;8.70;1.00;;;;;;5051227;28;20472;-50
2022/03/24 07:53:10;;;;;;;10.10;7.35;;;8.90;1.00;;;;;;5047080;28;20475;-53
2022/03/24 07:55:38;;;;;;;13.93;9.52;;;9.10;1.00;;;;;;5052074;28;20519;-52
2022/03/24 07:58:06;;;;;;;12.40;8.05;;;9.30;1.00;;;;;;5051716;28;21046;-48
2022/03/24 08:00:33;;;;;;;9.70;6.60;;;9.40;1.00;;;;;;5052082;28;20203;-51
2022/03/24 08:02:59;;;;;;;13.00;6.83;;;9.70;1.00;;;;;;5052607;28;20807;-53
2022/03/24 08:05:29;;;;;;;11.60;5.67;;;9.90;1.00;;;;;;5054213;28;20454;-51
2022/03/24 08:07:56;;;;;;;20.70;8.30;;;10.20;1.00;;;;;;5053748;28;20554;-54
2022/03/24 08:10:23;;;;;;;12.73;5.53;;;10.30;1.00;;;;;;5053392;28;20915;-50
2022/03/24 08:12:51;;;;;;;12.57;6.90;;;10.30;1.00;;;;;;5052845;28;20490;-50
2022/03/24 08:15:17;;;;;;;11.27;6.37;;;10.30;1.00;;;;;;5054678;28;20479;-50
2022/03/24 08:17:45;;;;;;;9.67;4.70;;;10.20;1.00;;;;;;5053847;28;20530;-51
2022/03/24 08:20:12;;;;;;;12.83;6.30;;;10.20;1.00;;;;;;5052104;28;20538;-53
2022/03/24 08:22:41;;;;;;;9.90;6.03;;;10.40;1.00;;;;;;5053777;28;20918;-50
2022/03/24 08:25:09;;;;;;;15.93;5.93;;;10.70;1.00;;;;;;5055603;28;20824;-50
2022/03/24 08:27:36;;;;;;;9.50;6.10;;;10.90;1.00;;;;;;5055702;28;20566;-50
2022/03/24 08:30:04;;;;;;;11.07;5.93;;;10.90;1.00;;;;;;5054585;28;20455;-51
2022/03/24 08:32:31;;;;;;;9.97;5.20;;;11.10;1.00;;;;;;5046776;28;20552;-49
2022/03/24 08:34:58;;;;;;;9.37;6.67;;;11.30;1.00;;;;;;5042183;28;20451;-53
2022/03/24 08:37:25;;;;;;;12.90;6.27;;;11.40;1.00;;;;;;5056531;28;20817;-52
2022/03/24 08:39:53;;;;;;;9.00;4.77;;;11.60;1.00;;;;;;5055381;28;20479;-52
2022/03/24 08:42:20;;;;;;;16.73;6.93;;;11.60;1.00;;;;;;5054589;28;20902;-50
2022/03/24 08:44:47;;;;;;;10.87;5.73;;;11.70;1.00;;;;;;5054717;28;20439;-51
2022/03/24 08:47:14;;;;;;;12.33;6.90;;;11.70;1.00;;;;;;5055857;28;20588;-51
2022/03/24 08:49:41;;;;;;;16.27;8.90;;;11.70;1.00;;;;;;5053338;28;20827;-53
2022/03/24 08:52:10;;;;;;;12.90;8.13;;;11.90;1.00;;;;;;5054510;28;20629;-52
2022/03/24 08:54:37;;;;;;;17.90;7.27;;;12.00;1.00;;;;;;5053472;28;20538;-52
2022/03/24 08:57:05;;;;;;;13.87;7.07;;;12.10;1.00;;;;;;5054218;28;21006;-50
2022/03/24 08:59:33;;;;;;;10.53;7.87;;;12.00;1.00;;;;;;5055566;28;20795;-53
2022/03/24 09:02:00;;;;;;;14.60;7.10;;;12.10;1.00;;;;;;5054582;28;20538;-53
2022/03/24 09:04:27;;;;;;;19.40;8.17;;;12.10;1.00;;;;;;5053811;28;20913;-55
2022/03/24 09:06:54;;;;;;;9.43;6.53;;;12.20;1.00;;;;;;5055313;28;20463;-51
2022/03/24 09:09:22;;;;;;;12.40;7.90;;;12.30;1.00;;;;;;5056511;28;20570;-56
2022/03/24 09:11:49;;;;;;;13.30;6.67;;;12.40;1.00;;;;;;5056035;28;20459;-53
2022/03/24 09:14:17;;;;;;;13.80;8.20;;;12.50;1.00;;;;;;5056129;28;20543;-51
2022/03/24 09:16:44;;;;;;;11.23;6.07;;;12.50;1.00;;;;;;5055409;28;20790;-49
2022/03/24 09:19:12;;;;;;;17.30;7.83;;;12.60;1.00;;;;;;5053670;28;20501;-55
2022/03/24 09:21:38;;;;;;;11.60;5.30;;;12.80;1.00;;;;;;5055084;28;20479;-55
2022/03/24 09:24:06;;;;;;;12.83;5.73;;;13.00;1.00;;;;;;5053617;28;20892;-55
2022/03/24 09:26:33;;;;;;;18.17;10.30;;;13.20;1.00;;;;;;5054605;28;20466;-56
2022/03/24 09:29:01;;;;;;;24.20;15.53;;;13.40;1.00;;;;;;5054908;28;20570;-54
2022/03/24 09:31:30;;;;;;;12.63;7.33;;;13.50;1.00;;;;;;5040034;28;20789;-54
2022/03/24 09:33:57;;;;;;;12.70;7.33;;;13.60;1.00;;;;;;5053491;28;20879;-55
2022/03/24 09:36:24;;;;;;;15.17;7.20;;;13.80;1.00;;;;;;5054658;28;20982;-54
2022/03/24 09:38:51;;;;;;;11.90;6.43;;;13.90;1.00;;;;;;5055003;28;20528;-54
2022/03/24 09:41:19;;;;;;;15.33;8.10;;;13.90;1.00;;;;;;5054989;28;20881;-52
2022/03/24 09:43:47;;;;;;;8.93;6.67;;;14.00;1.00;;;;;;5055132;28;20502;-53
2022/03/24 09:46:15;;;;;;;14.10;6.40;;;14.10;1.00;;;;;;5055846;28;20521;-52
2022/03/24 09:48:44;;;;;;;11.97;6.30;;;14.20;1.00;;;;;;5053913;28;20480;-54
2022/03/24 09:51:12;;;;;;;13.47;6.37;;;14.30;1.00;;;;;;5053797;28;20475;-53
2022/03/24 09:53:40;;;;;;;13.27;7.53;;;14.30;1.00;;;;;;5054982;28;20933;-52
2022/03/24 09:56:08;;;;;;;12.70;8.40;;;14.50;1.00;;;;;;5052148;28;20462;-51
2022/03/24 09:58:35;;;;;;;9.97;7.17;;;14.70;1.00;;;;;;5037171;28;20450;-54
2022/03/24 10:01:02;;;;;;;13.70;8.13;;;14.90;1.00;;;;;;5046872;28;20456;-54
2022/03/24 10:03:29;;;;;;;12.80;7.20;;;15.10;1.00;;;;;;5053369;28;20451;-52
2022/03/24 10:06:02;;;;;;;11.37;7.57;;;15.20;1.00;;;;;;5053855;28;20550;-56
2022/03/24 10:08:30;;;;;;;9.67;5.70;;;15.30;1.00;;;;;;5050728;28;20533;-54
2022/03/24 10:10:59;;;;;;;10.47;7.30;;;15.40;1.00;;;;;;5038363;28;20460;-54
2022/03/24 10:13:42;;;;;;;9.17;6.03;;;15.70;1.00;;;;;;5038747;28;20883;-56
2022/03/24 10:16:09;;;;;;;11.57;6.80;;;16.00;1.00;;;;;;5044598;28;20447;-55
2022/03/24 10:18:36;;;;;;;12.40;7.10;;;16.30;1.00;;;;;;5054007;28;20617;-53
2022/03/24 10:21:12;;;;;;;8.80;6.33;;;16.50;1.00;;;;;;5053696;28;20486;-53
2022/03/24 10:23:45;;;;;;;8.90;5.60;;;16.80;1.00;;;;;;5052141;28;20531;-54
2022/03/24 10:26:12;;;;;;;8.03;5.30;;;17.00;1.00;;;;;;5046350;28;20558;-55
2022/03/24 10:28:39;;;;;;;12.47;7.10;;;17.30;1.00;;;;;;5040507;28;20488;-52
2022/03/24 10:31:06;;;;;;;14.32;8.82;;;17.20;99.90;;;;;;5044054;28;20517;-52
2022/03/24 10:33:34;;;;;;;12.40;10.30;;;17.40;99.90;;;;;;5048500;28;20427;-54
2022/03/24 10:36:14;;;;;;;13.73;10.05;;;17.40;99.90;;;;;;5048612;28;20524;-54
2022/03/24 10:38:44;;;;;;;12.07;10.33;;;17.50;99.90;;;;;;5047422;28;20421;-54
2022/03/24 10:41:19;;;;;;;17.42;10.10;;;17.60;99.90;;;;;;5049270;28;20520;-53
2022/03/24 10:43:49;;;;;;;12.73;9.48;;;17.90;99.90;;;;;;5050161;28;20464;-54
2022/03/24 10:46:18;;;;;;;14.50;9.30;;;18.20;99.90;;;;;;5051423;28;20724;-54
2022/03/24 10:48:47;;;;;;;13.45;8.68;;;18.30;99.90;;;;;;5047339;28;20457;-53
2022/03/24 10:51:22;;;;;;;10.85;8.75;;;18.70;99.90;;;;;;5048510;28;20515;-52
2022/03/24 10:53:50;;;;;;;10.23;8.88;;;18.70;99.90;;;;;;5046653;28;20944;-56
2022/03/24 10:56:21;;;;;;;15.07;9.73;;;18.90;99.90;;;;;;5048312;28;20441;-55
2022/03/24 10:58:54;;;;;;;12.65;8.75;;;19.10;99.90;;;;;;5034517;28;20465;-55
2022/03/24 11:01:23;;;;;;;10.77;8.73;;;19.20;99.90;;;;;;5048302;28;20437;-55
2022/03/24 11:03:51;;;;;;;13.32;9.52;;;19.10;99.90;;;;;;5051798;28;20492;-55
2022/03/24 11:06:22;;;;;;;12.60;9.10;;;19.30;99.90;;;;;;5052260;28;20512;-57
2022/03/24 11:08:54;;;;;;;10.75;9.30;;;19.40;99.90;;;;;;5051978;28;20425;-57
2022/03/24 11:11:22;;;;;;;15.63;10.77;;;19.50;99.90;;;;;;5052912;28;20456;-56
2022/03/24 11:13:52;;;;;;;11.47;9.60;;;19.30;99.90;;;;;;5052225;28;20431;-56
2022/03/24 11:16:20;;;;;;;12.45;9.48;;;19.60;99.90;;;;;;5050882;28;20432;-55
2022/03/24 11:18:48;;;;;;;15.82;11.13;;;19.80;99.90;;;;;;5041833;28;20461;-56
2022/03/24 11:21:24;;;;;;;23.33;16.73;;;19.80;99.90;;;;;;5033136;28;20470;-54
2022/03/24 11:23:54;;;;;;;23.83;14.70;;;19.80;99.90;;;;;;5041152;28;20516;-58
2022/03/24 11:26:22;;;;;;;12.38;10.15;;;20.00;99.90;;;;;;5044785;28;20435;-57
2022/03/24 11:28:50;;;;;;;9.25;8.02;;;20.30;99.90;;;;;;5040208;28;20436;-57
2022/03/24 11:31:18;;;;;;;13.68;10.02;;;20.60;99.90;;;;;;5040666;28;20464;-57
2022/03/24 11:33:47;;;;;;;10.63;8.93;;;20.40;99.90;;;;;;5031987;28;20513;-58
2022/03/24 11:36:15;;;;;;;11.20;8.23;;;20.30;99.90;;;;;;5032342;28;20437;-58
2022/03/24 11:38:46;;;;;;;10.65;8.07;;;20.50;99.90;;;;;;5030153;28;20415;-58
2022/03/24 11:41:19;;;;;;;9.82;7.70;;;20.70;99.90;;;;;;5031696;28;20533;-57
2022/03/24 11:43:51;;;;;;;9.45;7.70;;;20.90;99.90;;;;;;5032759;28;20509;-57
2022/03/24 11:46:29;;;;;;;10.07;7.78;;;20.90;99.90;;;;;;5032444;28;20510;-57
2022/03/24 11:49:16;;;;;;;10.35;6.55;;;20.60;99.90;;;;;;5031557;28;20889;-57
2022/03/24 11:51:44;;;;;;;7.87;6.33;;;20.40;99.90;;;;;;5049787;28;20428;-55
2022/03/24 11:54:23;;;;;;;9.70;6.25;;;20.60;99.90;;;;;;5050421;28;20417;-57
2022/03/24 11:56:50;;;;;;;8.38;5.60;;;20.80;99.90;;;;;;5049710;28;20425;-57
2022/03/24 11:59:19;;;;;;;11.90;7.38;;;20.60;99.90;;;;;;5052440;28;20793;-56
2022/03/24 12:01:47;;;;;;;7.97;5.70;;;20.90;99.90;;;;;;5054648;28;20808;-55
2022/03/24 12:04:15;;;;;;;7.60;5.50;;;20.90;99.90;;;;;;5054468;28;20515;-56
2022/03/24 12:06:55;;;;;;;9.73;6.80;;;21.00;99.90;;;;;;5056012;28;20433;-57
2022/03/24 12:09:28;;;;;;;8.02;6.30;;;20.90;99.90;;;;;;5055940;28;20703;-57
2022/03/24 12:12:09;;;;;;;8.73;5.95;;;20.90;99.90;;;;;;5056416;28;20436;-57
2022/03/24 12:14:42;;;;;;;9.45;7.25;;;21.00;99.90;;;;;;5054372;28;20479;-59
2022/03/24 12:17:17;;;;;;;9.43;6.20;;;21.20;99.90;;;;;;5054231;28;20927;-57
2022/03/24 12:19:47;;;;;;;9.38;6.55;;;21.10;99.90;;;;;;5054135;28;20471;-56
2022/03/24 12:22:35;;;;;;;12.07;9.10;;;21.20;99.90;;;;;;5055333;28;20906;-56
2022/03/24 12:25:32;;;;;;;10.32;8.15;;;21.20;99.90;;;;;;5054204;28;20425;-57
2022/03/24 12:28:08;;;;;;;11.50;8.20;;;21.10;99.90;;;;;;5033178;28;20430;-57
2022/03/24 12:31:04;;;;;;;9.98;6.93;;;21.40;99.90;;;;;;5033451;28;20555;-55
2022/03/24 12:33:37;;;;;;;7.70;6.60;;;21.60;99.90;;;;;;5048907;28;20545;-58
2022/03/24 12:36:05;;;;;;;8.25;5.57;;;21.00;99.90;;;;;;5054386;28;20437;-58
2022/03/24 12:38:46;;;;;;;6.50;4.90;;;21.10;99.90;;;;;;5055640;28;20436;-61
2022/03/24 12:41:22;;;;;;;8.45;6.40;;;21.40;99.90;;;;;;5052854;28;20433;-57
2022/03/24 12:43:54;;;;;;;10.48;8.05;;;21.50;99.90;;;;;;5052799;28;20709;-57
2022/03/24 12:46:25;;;;;;;12.68;8.88;;;21.50;99.90;;;;;;5052799;28;20435;-58
2022/03/24 12:48:53;;;;;;;8.80;7.50;;;21.30;99.90;;;;;;5051860;28;20421;-57
2022/03/24 12:51:22;;;;;;;8.10;6.30;;;21.10;99.90;;;;;;5052696;28;20542;-59
2022/03/24 12:53:52;;;;;;;9.80;6.78;;;21.00;99.90;;;;;;5052358;28;20478;-58
2022/03/24 12:56:27;;;;;;;7.95;6.05;;;20.90;99.90;;;;;;5051434;28;20426;-58
2022/03/24 12:59:01;;;;;;;8.10;7.17;;;20.90;99.90;;;;;;5051648;28;20825;-60
2022/03/24 13:01:28;;;;;;;6.93;5.82;;;20.90;99.90;;;;;;5052981;28;20421;-60
2022/03/24 13:03:58;;;;;;;8.02;6.13;;;20.90;99.90;;;;;;5054176;28;20841;-61